sensor_id;sensor_type;location;lat;lon;timestamp;temperature;humidity
53146;DHT22;39042;53.150;5.898;2024-02-21T00:00:55;9.10;99.90
53146;DHT22;39042;53.150;5.898;2024-02-21T00:03:21;9.10;99.90
53146;DHT22;39042;53.150;5.898;2024-02-21T00:05:47;9.10;99.90
53146;DHT22;39042;53.150;5.898;2024-02-21T00:08:13;9.10;99.90
53146;DHT22;39042;53.150;5.898;2024-02-21T00:10:39;9.10;99.90
53146;DHT22;39042;53.150;5.898;2024-02-21T00:13:05;9.10;99.90
53146;DHT22;39042;53.150;5.898;2024-02-21T00:15:31;9.10;99.90
53146;DHT22;39042;53.150;5.898;2024-02-21T00:17:57;9.10;99.90
53146;DHT22;39042;53.150;5.898;2024-02-21T00:20:22;9.10;99.90
53146;DHT22;39042;53.150;5.898;2024-02-21T00:22:48;9.10;99.90
53146;DHT22;39042;53.150;5.898;2024-02-21T00:25:15;9.10;99.90
53146;DHT22;39042;53.150;5.898;2024-02-21T00:27:41;9.10;99.90
53146;DHT22;39042;53.150;5.898;2024-02-21T00:30:07;9.10;99.90
53146;DHT22;39042;53.150;5.898;2024-02-21T00:32:33;9.00;99.90
53146;DHT22;39042;53.150;5.898;2024-02-21T00:35:00;9.00;99.90
53146;DHT22;39042;53.150;5.898;2024-02-21T00:37:27;9.00;99.90
53146;DHT22;39042;53.150;5.898;2024-02-21T00:39:54;9.00;99.90
53146;DHT22;39042;53.150;5.898;2024-02-21T00:42:20;9.00;99.90
53146;DHT22;39042;53.150;5.898;2024-02-21T00:44:47;9.00;99.90
53146;DHT22;39042;53.150;5.898;2024-02-21T00:47:12;9.00;99.90
53146;DHT22;39042;53.150;5.898;2024-02-21T00:49:38;9.00;99.90
53146;DHT22;39042;53.150;5.898;2024-02-21T00:52:04;9.00;99.90
53146;DHT22;39042;53.150;5.898;2024-02-21T00:54:30;9.00;99.90
53146;DHT22;39042;53.150;5.898;2024-02-21T00:56:56;9.00;99.90
53146;DHT22;39042;53.150;5.898;2024-02-21T00:59:21;9.00;99.90
53146;DHT22;39042;53.150;5.898;2024-02-21T01:01:47;9.00;99.90
53146;DHT22;39042;53.150;5.898;2024-02-21T01:04:13;9.00;99.90
53146;DHT22;39042;53.150;5.898;2024-02-21T01:06:39;8.90;99.90
53146;DHT22;39042;53.150;5.898;2024-02-21T01:09:08;8.90;99.90
53146;DHT22;39042;53.150;5.898;2024-02-21T01:11:34;8.90;99.90
53146;DHT22;39042;53.150;5.898;2024-02-21T01:14:00;8.90;99.90
53146;DHT22;39042;53.150;5.898;2024-02-21T01:16:26;8.90;99.90
53146;DHT22;39042;53.150;5.898;2024-02-21T01:18:52;8.90;99.90
53146;DHT22;39042;53.150;5.898;2024-02-21T01:21:18;8.90;99.90
53146;DHT22;39042;53.150;5.898;2024-02-21T01:23:44;8.90;99.90
53146;DHT22;39042;53.150;5.898;2024-02-21T01:26:10;8.90;99.90
53146;DHT22;39042;53.150;5.898;2024-02-21T01:28:38;8.90;99.90
53146;DHT22;39042;53.150;5.898;2024-02-21T01:31:04;8.90;99.90
53146;DHT22;39042;53.150;5.898;2024-02-21T01:33:30;8.90;99.90
53146;DHT22;39042;53.150;5.898;2024-02-21T01:36:03;8.90;99.90
53146;DHT22;39042;53.150;5.898;2024-02-21T01:38:29;8.90;99.90
53146;DHT22;39042;53.150;5.898;2024-02-21T01:40:55;8.90;99.90
53146;DHT22;39042;53.150;5.898;2024-02-21T01:43:22;8.90;99.90
53146;DHT22;39042;53.150;5.898;2024-02-21T01:45:54;8.90;99.90
53146;DHT22;39042;53.150;5.898;2024-02-21T01:48:21;8.90;99.90
53146;DHT22;39042;53.150;5.898;2024-02-21T01:50:49;8.90;99.90
53146;DHT22;39042;53.150;5.898;2024-02-21T01:53:21;8.90;99.90
53146;DHT22;39042;53.150;5.898;2024-02-21T01:55:47;8.80;99.90
53146;DHT22;39042;53.150;5.898;2024-02-21T01:58:15;8.90;99.90
53146;DHT22;39042;53.150;5.898;2024-02-21T02:00:42;8.90;99.90
53146;DHT22;39042;53.150;5.898;2024-02-21T02:03:10;8.90;99.90
53146;DHT22;39042;53.150;5.898;2024-02-21T02:05:49;8.90;99.90
53146;DHT22;39042;53.150;5.898;2024-02-21T02:08:24;8.90;99.90
53146;DHT22;39042;53.150;5.898;2024-02-21T02:10:50;8.80;99.90
53146;DHT22;39042;53.150;5.898;2024-02-21T02:13:16;8.80;99.90
53146;DHT22;39042;53.150;5.898;2024-02-21T02:15:43;8.80;99.90
53146;DHT22;39042;53.150;5.898;2024-02-21T02:18:10;8.80;99.90
53146;DHT22;39042;53.150;5.898;2024-02-21T02:20:36;8.80;99.90
53146;DHT22;39042;53.150;5.898;2024-02-21T02:23:30;8.80;99.90
53146;DHT22;39042;53.150;5.898;2024-02-21T02:26:00;8.80;99.90
53146;DHT22;39042;53.150;5.898;2024-02-21T02:28:29;8.80;99.90
53146;DHT22;39042;53.150;5.898;2024-02-21T02:30:54;8.80;99.90
53146;DHT22;39042;53.150;5.898;2024-02-21T02:33:20;8.80;99.90
53146;DHT22;39042;53.150;5.898;2024-02-21T02:35:46;8.80;99.90
53146;DHT22;39042;53.150;5.898;2024-02-21T02:38:12;8.80;99.90
53146;DHT22;39042;53.150;5.898;2024-02-21T02:40:39;8.80;99.90
53146;DHT22;39042;53.150;5.898;2024-02-21T02:43:06;8.80;99.90
53146;DHT22;39042;53.150;5.898;2024-02-21T02:45:32;8.80;99.90
53146;DHT22;39042;53.150;5.898;2024-02-21T02:47:58;8.80;99.90
53146;DHT22;39042;53.150;5.898;2024-02-21T02:50:25;8.90;99.90
53146;DHT22;39042;53.150;5.898;2024-02-21T02:52:52;8.80;99.90
53146;DHT22;39042;53.150;5.898;2024-02-21T02:55:18;8.90;99.90
53146;DHT22;39042;53.150;5.898;2024-02-21T02:57:44;8.90;99.90
53146;DHT22;39042;53.150;5.898;2024-02-21T03:00:14;8.90;99.90
53146;DHT22;39042;53.150;5.898;2024-02-21T03:02:42;8.90;99.90
53146;DHT22;39042;53.150;5.898;2024-02-21T03:05:13;8.90;99.90
53146;DHT22;39042;53.150;5.898;2024-02-21T03:07:40;8.90;99.90
53146;DHT22;39042;53.150;5.898;2024-02-21T03:10:06;8.90;99.90
53146;DHT22;39042;53.150;5.898;2024-02-21T03:12:32;8.90;99.90
53146;DHT22;39042;53.150;5.898;2024-02-21T03:14:58;8.90;99.90
53146;DHT22;39042;53.150;5.898;2024-02-21T03:17:25;8.90;99.90
53146;DHT22;39042;53.150;5.898;2024-02-21T03:19:52;8.90;99.90
53146;DHT22;39042;53.150;5.898;2024-02-21T03:22:18;8.90;99.90
53146;DHT22;39042;53.150;5.898;2024-02-21T03:24:44;8.90;99.90
53146;DHT22;39042;53.150;5.898;2024-02-21T03:27:10;8.90;99.90
53146;DHT22;39042;53.150;5.898;2024-02-21T03:29:36;8.90;99.90
53146;DHT22;39042;53.150;5.898;2024-02-21T03:32:02;8.90;99.90
53146;DHT22;39042;53.150;5.898;2024-02-21T03:34:28;8.90;99.90
53146;DHT22;39042;53.150;5.898;2024-02-21T03:36:54;8.90;99.90
53146;DHT22;39042;53.150;5.898;2024-02-21T03:39:19;8.90;99.90
53146;DHT22;39042;53.150;5.898;2024-02-21T03:41:47;8.90;99.90
53146;DHT22;39042;53.150;5.898;2024-02-21T03:44:12;8.90;99.90
53146;DHT22;39042;53.150;5.898;2024-02-21T03:46:38;8.90;99.90
53146;DHT22;39042;53.150;5.898;2024-02-21T03:49:04;8.90;99.90
53146;DHT22;39042;53.150;5.898;2024-02-21T03:51:30;8.90;99.90
53146;DHT22;39042;53.150;5.898;2024-02-21T03:53:56;8.90;99.90
53146;DHT22;39042;53.150;5.898;2024-02-21T03:56:22;8.90;99.90
53146;DHT22;39042;53.150;5.898;2024-02-21T03:58:48;8.90;99.90
53146;DHT22;39042;53.150;5.898;2024-02-21T04:01:16;8.90;99.90
53146;DHT22;39042;53.150;5.898;2024-02-21T04:03:43;8.90;99.90
53146;DHT22;39042;53.150;5.898;2024-02-21T04:06:09;8.90;99.90
53146;DHT22;39042;53.150;5.898;2024-02-21T04:08:35;8.90;99.90
53146;DHT22;39042;53.150;5.898;2024-02-21T04:11:01;8.90;99.90
53146;DHT22;39042;53.150;5.898;2024-02-21T04:13:27;8.90;99.90
53146;DHT22;39042;53.150;5.898;2024-02-21T04:15:53;8.90;99.90
53146;DHT22;39042;53.150;5.898;2024-02-21T04:18:19;8.90;99.90
53146;DHT22;39042;53.150;5.898;2024-02-21T04:20:45;8.90;99.90
53146;DHT22;39042;53.150;5.898;2024-02-21T04:23:10;8.90;99.90
53146;DHT22;39042;53.150;5.898;2024-02-21T04:25:36;8.80;99.90
53146;DHT22;39042;53.150;5.898;2024-02-21T04:28:02;8.90;99.90
53146;DHT22;39042;53.150;5.898;2024-02-21T04:30:29;8.80;99.90
53146;DHT22;39042;53.150;5.898;2024-02-21T04:32:54;8.80;99.90
53146;DHT22;39042;53.150;5.898;2024-02-21T04:35:20;8.80;99.90
53146;DHT22;39042;53.150;5.898;2024-02-21T04:37:46;8.80;99.90
53146;DHT22;39042;53.150;5.898;2024-02-21T04:40:12;8.80;99.90
53146;DHT22;39042;53.150;5.898;2024-02-21T04:42:39;8.70;99.90
53146;DHT22;39042;53.150;5.898;2024-02-21T04:45:06;8.80;99.90
53146;DHT22;39042;53.150;5.898;2024-02-21T04:47:32;8.80;99.90
53146;DHT22;39042;53.150;5.898;2024-02-21T04:49:57;8.80;99.90
53146;DHT22;39042;53.150;5.898;2024-02-21T04:52:23;8.80;99.90
53146;DHT22;39042;53.150;5.898;2024-02-21T04:54:49;8.80;99.90
53146;DHT22;39042;53.150;5.898;2024-02-21T04:57:15;8.80;99.90
53146;DHT22;39042;53.150;5.898;2024-02-21T04:59:46;8.80;99.90
53146;DHT22;39042;53.150;5.898;2024-02-21T05:02:15;8.80;99.90
53146;DHT22;39042;53.150;5.898;2024-02-21T05:04:42;8.80;99.90
53146;DHT22;39042;53.150;5.898;2024-02-21T05:07:08;8.90;99.90
53146;DHT22;39042;53.150;5.898;2024-02-21T05:09:34;8.90;99.90
53146;DHT22;39042;53.150;5.898;2024-02-21T05:12:00;8.90;99.90
53146;DHT22;39042;53.150;5.898;2024-02-21T05:14:26;8.80;99.90
53146;DHT22;39042;53.150;5.898;2024-02-21T05:16:53;8.90;99.90
53146;DHT22;39042;53.150;5.898;2024-02-21T05:19:18;8.90;99.90
53146;DHT22;39042;53.150;5.898;2024-02-21T05:21:45;8.90;99.90
53146;DHT22;39042;53.150;5.898;2024-02-21T05:24:11;8.90;99.90
53146;DHT22;39042;53.150;5.898;2024-02-21T05:26:37;8.90;99.90
53146;DHT22;39042;53.150;5.898;2024-02-21T05:29:03;8.90;99.90
53146;DHT22;39042;53.150;5.898;2024-02-21T05:34:17;8.90;99.90
53146;DHT22;39042;53.150;5.898;2024-02-21T05:36:43;8.90;99.90
53146;DHT22;39042;53.150;5.898;2024-02-21T05:39:09;8.90;99.90
53146;DHT22;39042;53.150;5.898;2024-02-21T05:41:35;8.90;99.90
53146;DHT22;39042;53.150;5.898;2024-02-21T05:44:01;8.90;99.90
53146;DHT22;39042;53.150;5.898;2024-02-21T05:46:27;8.80;99.90
53146;DHT22;39042;53.150;5.898;2024-02-21T05:48:53;8.80;99.90
53146;DHT22;39042;53.150;5.898;2024-02-21T05:51:19;8.80;99.90
53146;DHT22;39042;53.150;5.898;2024-02-21T05:53:45;8.80;99.90
53146;DHT22;39042;53.150;5.898;2024-02-21T05:56:11;8.80;99.90
53146;DHT22;39042;53.150;5.898;2024-02-21T05:58:38;8.80;99.90
53146;DHT22;39042;53.150;5.898;2024-02-21T06:01:04;8.80;99.90
53146;DHT22;39042;53.150;5.898;2024-02-21T06:03:30;8.80;99.90
53146;DHT22;39042;53.150;5.898;2024-02-21T06:05:56;8.80;99.90
53146;DHT22;39042;53.150;5.898;2024-02-21T06:08:22;8.80;99.90
53146;DHT22;39042;53.150;5.898;2024-02-21T06:10:48;8.80;99.90
53146;DHT22;39042;53.150;5.898;2024-02-21T06:13:14;8.80;99.90
53146;DHT22;39042;53.150;5.898;2024-02-21T06:15:40;8.80;99.90
53146;DHT22;39042;53.150;5.898;2024-02-21T06:18:06;8.80;99.90
53146;DHT22;39042;53.150;5.898;2024-02-21T06:20:32;8.80;99.90
53146;DHT22;39042;53.150;5.898;2024-02-21T06:22:58;8.80;99.90
53146;DHT22;39042;53.150;5.898;2024-02-21T06:25:23;8.80;99.90
53146;DHT22;39042;53.150;5.898;2024-02-21T06:27:49;8.80;99.90
53146;DHT22;39042;53.150;5.898;2024-02-21T06:30:15;8.80;99.90
53146;DHT22;39042;53.150;5.898;2024-02-21T06:32:41;8.80;99.90
53146;DHT22;39042;53.150;5.898;2024-02-21T06:35:06;8.80;99.90
53146;DHT22;39042;53.150;5.898;2024-02-21T06:37:32;8.80;99.90
53146;DHT22;39042;53.150;5.898;2024-02-21T06:39:58;8.80;99.90
53146;DHT22;39042;53.150;5.898;2024-02-21T06:42:25;8.80;99.90
53146;DHT22;39042;53.150;5.898;2024-02-21T06:44:51;8.80;99.90
53146;DHT22;39042;53.150;5.898;2024-02-21T06:47:17;8.80;99.90
53146;DHT22;39042;53.150;5.898;2024-02-21T06:49:43;8.90;99.90
53146;DHT22;39042;53.150;5.898;2024-02-21T06:52:13;8.90;99.90
53146;DHT22;39042;53.150;5.898;2024-02-21T06:54:42;8.90;99.90
53146;DHT22;39042;53.150;5.898;2024-02-21T06:57:08;8.90;99.90
53146;DHT22;39042;53.150;5.898;2024-02-21T06:59:34;8.90;99.90
53146;DHT22;39042;53.150;5.898;2024-02-21T07:02:00;8.90;99.90
53146;DHT22;39042;53.150;5.898;2024-02-21T07:04:26;8.90;99.90
53146;DHT22;39042;53.150;5.898;2024-02-21T07:06:52;8.90;99.90
53146;DHT22;39042;53.150;5.898;2024-02-21T07:09:18;8.90;99.90
53146;DHT22;39042;53.150;5.898;2024-02-21T07:11:44;8.90;99.90
53146;DHT22;39042;53.150;5.898;2024-02-21T07:14:10;8.90;99.90
53146;DHT22;39042;53.150;5.898;2024-02-21T07:16:36;8.90;99.90
53146;DHT22;39042;53.150;5.898;2024-02-21T07:19:02;8.90;99.90
53146;DHT22;39042;53.150;5.898;2024-02-21T07:21:28;9.00;99.90
53146;DHT22;39042;53.150;5.898;2024-02-21T07:23:54;9.00;99.90
53146;DHT22;39042;53.150;5.898;2024-02-21T07:26:20;9.00;99.90
53146;DHT22;39042;53.150;5.898;2024-02-21T07:28:45;9.00;99.90
53146;DHT22;39042;53.150;5.898;2024-02-21T07:31:11;9.00;99.90
53146;DHT22;39042;53.150;5.898;2024-02-21T07:33:37;9.00;99.90
53146;DHT22;39042;53.150;5.898;2024-02-21T07:36:07;9.00;99.90
53146;DHT22;39042;53.150;5.898;2024-02-21T07:38:34;9.10;99.90
53146;DHT22;39042;53.150;5.898;2024-02-21T07:41:00;9.10;99.90
53146;DHT22;39042;53.150;5.898;2024-02-21T07:43:25;9.10;99.90
53146;DHT22;39042;53.150;5.898;2024-02-21T07:45:52;9.10;99.90
53146;DHT22;39042;53.150;5.898;2024-02-21T07:48:18;9.10;99.90
53146;DHT22;39042;53.150;5.898;2024-02-21T07:50:45;9.10;99.90
53146;DHT22;39042;53.150;5.898;2024-02-21T07:53:10;9.10;99.90
53146;DHT22;39042;53.150;5.898;2024-02-21T07:55:36;9.10;99.90
53146;DHT22;39042;53.150;5.898;2024-02-21T07:58:02;9.10;99.90
53146;DHT22;39042;53.150;5.898;2024-02-21T08:00:28;9.10;99.90
53146;DHT22;39042;53.150;5.898;2024-02-21T08:02:55;9.10;99.90
53146;DHT22;39042;53.150;5.898;2024-02-21T08:05:21;9.10;99.90
53146;DHT22;39042;53.150;5.898;2024-02-21T08:07:48;9.00;99.90
53146;DHT22;39042;53.150;5.898;2024-02-21T08:10:14;9.10;99.90
53146;DHT22;39042;53.150;5.898;2024-02-21T08:12:40;9.10;99.90
53146;DHT22;39042;53.150;5.898;2024-02-21T08:15:06;9.10;99.90
53146;DHT22;39042;53.150;5.898;2024-02-21T08:17:34;9.10;99.90
53146;DHT22;39042;53.150;5.898;2024-02-21T08:20:00;9.10;99.90
53146;DHT22;39042;53.150;5.898;2024-02-21T08:22:26;9.10;99.90
53146;DHT22;39042;53.150;5.898;2024-02-21T08:24:52;9.10;99.90
53146;DHT22;39042;53.150;5.898;2024-02-21T08:27:18;9.10;99.90
53146;DHT22;39042;53.150;5.898;2024-02-21T08:29:43;9.10;99.90
53146;DHT22;39042;53.150;5.898;2024-02-21T08:32:09;9.10;99.90
53146;DHT22;39042;53.150;5.898;2024-02-21T08:34:35;9.20;99.90
53146;DHT22;39042;53.150;5.898;2024-02-21T08:37:01;9.20;99.90
53146;DHT22;39042;53.150;5.898;2024-02-21T08:39:27;9.20;99.90
53146;DHT22;39042;53.150;5.898;2024-02-21T08:41:54;9.20;99.90
53146;DHT22;39042;53.150;5.898;2024-02-21T08:44:22;9.20;99.90
53146;DHT22;39042;53.150;5.898;2024-02-21T08:46:49;9.30;99.90
53146;DHT22;39042;53.150;5.898;2024-02-21T08:49:14;9.20;99.90
53146;DHT22;39042;53.150;5.898;2024-02-21T08:51:40;9.30;99.90
53146;DHT22;39042;53.150;5.898;2024-02-21T08:54:06;9.30;99.90
53146;DHT22;39042;53.150;5.898;2024-02-21T08:56:32;9.30;99.90
53146;DHT22;39042;53.150;5.898;2024-02-21T08:58:58;9.30;99.90
53146;DHT22;39042;53.150;5.898;2024-02-21T09:01:24;9.30;99.90
53146;DHT22;39042;53.150;5.898;2024-02-21T09:03:49;9.30;99.90
53146;DHT22;39042;53.150;5.898;2024-02-21T09:06:19;9.40;99.90
53146;DHT22;39042;53.150;5.898;2024-02-21T09:08:46;9.30;99.90
53146;DHT22;39042;53.150;5.898;2024-02-21T09:11:11;9.40;99.90
53146;DHT22;39042;53.150;5.898;2024-02-21T09:13:37;9.40;99.90
53146;DHT22;39042;53.150;5.898;2024-02-21T09:16:03;9.40;99.90
53146;DHT22;39042;53.150;5.898;2024-02-21T09:18:29;9.40;99.90
53146;DHT22;39042;53.150;5.898;2024-02-21T09:20:55;9.40;99.90
53146;DHT22;39042;53.150;5.898;2024-02-21T09:23:24;9.40;99.90
53146;DHT22;39042;53.150;5.898;2024-02-21T09:25:50;9.50;99.90
53146;DHT22;39042;53.150;5.898;2024-02-21T09:28:16;9.50;99.90
53146;DHT22;39042;53.150;5.898;2024-02-21T09:30:42;9.50;99.90
53146;DHT22;39042;53.150;5.898;2024-02-21T09:33:07;9.60;99.90
53146;DHT22;39042;53.150;5.898;2024-02-21T09:35:33;9.50;99.90
53146;DHT22;39042;53.150;5.898;2024-02-21T09:37:59;9.60;99.90
53146;DHT22;39042;53.150;5.898;2024-02-21T09:40:25;9.60;99.90
53146;DHT22;39042;53.150;5.898;2024-02-21T09:43:02;9.70;99.90
53146;DHT22;39042;53.150;5.898;2024-02-21T09:45:33;9.70;99.90
53146;DHT22;39042;53.150;5.898;2024-02-21T09:51:01;9.80;99.90
53146;DHT22;39042;53.150;5.898;2024-02-21T09:53:27;9.90;99.90
53146;DHT22;39042;53.150;5.898;2024-02-21T09:55:54;9.90;99.90
53146;DHT22;39042;53.150;5.898;2024-02-21T09:58:20;10.00;99.90
53146;DHT22;39042;53.150;5.898;2024-02-21T10:00:47;10.10;99.90
53146;DHT22;39042;53.150;5.898;2024-02-21T10:03:13;10.10;99.90
53146;DHT22;39042;53.150;5.898;2024-02-21T10:05:45;10.10;99.90
53146;DHT22;39042;53.150;5.898;2024-02-21T10:08:14;10.10;99.90
53146;DHT22;39042;53.150;5.898;2024-02-21T10:10:43;10.10;99.90
53146;DHT22;39042;53.150;5.898;2024-02-21T10:13:10;10.20;99.90
53146;DHT22;39042;53.150;5.898;2024-02-21T10:15:36;10.20;99.90
53146;DHT22;39042;53.150;5.898;2024-02-21T10:18:02;10.20;99.90
53146;DHT22;39042;53.150;5.898;2024-02-21T10:20:32;10.20;99.90
53146;DHT22;39042;53.150;5.898;2024-02-21T10:23:03;10.20;99.90
53146;DHT22;39042;53.150;5.898;2024-02-21T10:25:34;10.30;99.90
53146;DHT22;39042;53.150;5.898;2024-02-21T10:28:02;10.30;99.90
53146;DHT22;39042;53.150;5.898;2024-02-21T10:30:28;10.30;99.90
53146;DHT22;39042;53.150;5.898;2024-02-21T10:32:55;10.40;99.90
53146;DHT22;39042;53.150;5.898;2024-02-21T10:35:28;10.50;99.90
53146;DHT22;39042;53.150;5.898;2024-02-21T10:37:56;10.50;99.90
53146;DHT22;39042;53.150;5.898;2024-02-21T10:40:29;10.60;99.90
53146;DHT22;39042;53.150;5.898;2024-02-21T10:43:00;10.70;99.90
53146;DHT22;39042;53.150;5.898;2024-02-21T10:45:36;10.60;99.90
53146;DHT22;39042;53.150;5.898;2024-02-21T10:48:14;10.70;99.90
53146;DHT22;39042;53.150;5.898;2024-02-21T10:51:20;10.70;99.90
53146;DHT22;39042;53.150;5.898;2024-02-21T10:56:33;10.60;99.90
53146;DHT22;39042;53.150;5.898;2024-02-21T10:59:06;10.70;99.90
53146;DHT22;39042;53.150;5.898;2024-02-21T11:01:32;10.70;99.90
53146;DHT22;39042;53.150;5.898;2024-02-21T11:04:08;10.60;99.90
53146;DHT22;39042;53.150;5.898;2024-02-21T11:06:37;10.60;99.90
53146;DHT22;39042;53.150;5.898;2024-02-21T11:09:07;10.60;99.90
53146;DHT22;39042;53.150;5.898;2024-02-21T11:11:38;10.60;99.90
53146;DHT22;39042;53.150;5.898;2024-02-21T11:14:18;10.50;99.90
53146;DHT22;39042;53.150;5.898;2024-02-21T11:16:45;10.60;99.90
53146;DHT22;39042;53.150;5.898;2024-02-21T11:19:23;10.50;99.90
53146;DHT22;39042;53.150;5.898;2024-02-21T11:21:50;10.50;99.90
53146;DHT22;39042;53.150;5.898;2024-02-21T11:24:32;10.50;99.90
53146;DHT22;39042;53.150;5.898;2024-02-21T11:27:21;10.50;99.90
53146;DHT22;39042;53.150;5.898;2024-02-21T11:29:48;10.50;99.90
53146;DHT22;39042;53.150;5.898;2024-02-21T11:32:20;10.50;99.90
53146;DHT22;39042;53.150;5.898;2024-02-21T11:37:25;10.60;99.90
53146;DHT22;39042;53.150;5.898;2024-02-21T11:39:57;10.60;99.90
53146;DHT22;39042;53.150;5.898;2024-02-21T11:42:25;10.60;99.90
53146;DHT22;39042;53.150;5.898;2024-02-21T11:44:51;10.50;99.90
53146;DHT22;39042;53.150;5.898;2024-02-21T11:47:18;10.50;99.90
53146;DHT22;39042;53.150;5.898;2024-02-21T11:49:48;10.40;99.90
53146;DHT22;39042;53.150;5.898;2024-02-21T11:52:25;10.40;99.90
53146;DHT22;39042;53.150;5.898;2024-02-21T11:54:51;10.40;99.90
53146;DHT22;39042;53.150;5.898;2024-02-21T11:57:22;10.30;99.90
53146;DHT22;39042;53.150;5.898;2024-02-21T11:59:48;10.30;99.90
53146;DHT22;39042;53.150;5.898;2024-02-21T12:02:15;10.30;99.90
53146;DHT22;39042;53.150;5.898;2024-02-21T12:04:42;10.30;99.90
53146;DHT22;39042;53.150;5.898;2024-02-21T12:07:09;10.40;99.90
53146;DHT22;39042;53.150;5.898;2024-02-21T12:09:35;10.40;99.90
53146;DHT22;39042;53.150;5.898;2024-02-21T12:14:29;10.50;99.90
53146;DHT22;39042;53.150;5.898;2024-02-21T12:16:56;10.40;99.90
53146;DHT22;39042;53.150;5.898;2024-02-21T12:19:22;10.50;99.90
53146;DHT22;39042;53.150;5.898;2024-02-21T12:21:48;10.50;99.90
53146;DHT22;39042;53.150;5.898;2024-02-21T12:24:25;10.50;99.90
53146;DHT22;39042;53.150;5.898;2024-02-21T12:26:52;10.50;99.90
53146;DHT22;39042;53.150;5.898;2024-02-21T12:29:21;10.50;99.90
53146;DHT22;39042;53.150;5.898;2024-02-21T12:31:47;10.50;99.90
53146;DHT22;39042;53.150;5.898;2024-02-21T12:34:15;10.50;99.90
53146;DHT22;39042;53.150;5.898;2024-02-21T12:36:42;10.50;99.90
53146;DHT22;39042;53.150;5.898;2024-02-21T12:39:09;10.60;99.90
53146;DHT22;39042;53.150;5.898;2024-02-21T12:41:38;10.60;99.90
53146;DHT22;39042;53.150;5.898;2024-02-21T12:44:05;10.60;99.90
53146;DHT22;39042;53.150;5.898;2024-02-21T12:46:34;10.60;99.90
53146;DHT22;39042;53.150;5.898;2024-02-21T12:49:04;10.60;99.90
53146;DHT22;39042;53.150;5.898;2024-02-21T12:51:31;10.60;99.90
53146;DHT22;39042;53.150;5.898;2024-02-21T12:53:57;10.60;99.90
53146;DHT22;39042;53.150;5.898;2024-02-21T12:56:23;10.60;99.90
53146;DHT22;39042;53.150;5.898;2024-02-21T12:58:50;10.60;99.90
53146;DHT22;39042;53.150;5.898;2024-02-21T13:01:16;10.50;99.90
53146;DHT22;39042;53.150;5.898;2024-02-21T13:03:42;10.50;99.90
53146;DHT22;39042;53.150;5.898;2024-02-21T13:06:08;10.50;99.90
53146;DHT22;39042;53.150;5.898;2024-02-21T13:08:39;10.50;99.90
53146;DHT22;39042;53.150;5.898;2024-02-21T13:11:10;10.50;99.90
53146;DHT22;39042;53.150;5.898;2024-02-21T13:13:37;10.60;99.90
53146;DHT22;39042;53.150;5.898;2024-02-21T13:16:04;10.60;99.90
53146;DHT22;39042;53.150;5.898;2024-02-21T13:18:32;10.60;99.90
53146;DHT22;39042;53.150;5.898;2024-02-21T13:21:01;10.60;99.90
53146;DHT22;39042;53.150;5.898;2024-02-21T13:23:36;10.70;99.90
53146;DHT22;39042;53.150;5.898;2024-02-21T13:26:10;10.70;99.90
53146;DHT22;39042;53.150;5.898;2024-02-21T13:28:43;10.70;99.90
53146;DHT22;39042;53.150;5.898;2024-02-21T13:31:10;10.70;99.90
53146;DHT22;39042;53.150;5.898;2024-02-21T13:33:36;10.80;99.90
53146;DHT22;39042;53.150;5.898;2024-02-21T13:36:02;10.80;99.90
53146;DHT22;39042;53.150;5.898;2024-02-21T13:38:31;10.80;99.90
53146;DHT22;39042;53.150;5.898;2024-02-21T13:40:57;10.70;99.90
53146;DHT22;39042;53.150;5.898;2024-02-21T13:43:23;10.70;99.90
53146;DHT22;39042;53.150;5.898;2024-02-21T13:45:59;10.60;99.90
53146;DHT22;39042;53.150;5.898;2024-02-21T13:48:28;10.60;99.90
53146;DHT22;39042;53.150;5.898;2024-02-21T13:50:55;10.60;99.90
53146;DHT22;39042;53.150;5.898;2024-02-21T13:53:21;10.60;99.90
53146;DHT22;39042;53.150;5.898;2024-02-21T13:55:48;10.60;99.90
53146;DHT22;39042;53.150;5.898;2024-02-21T13:58:17;10.50;99.90
53146;DHT22;39042;53.150;5.898;2024-02-21T14:00:43;10.50;99.90
53146;DHT22;39042;53.150;5.898;2024-02-21T14:03:14;10.50;99.90
53146;DHT22;39042;53.150;5.898;2024-02-21T14:05:40;10.40;99.90
53146;DHT22;39042;53.150;5.898;2024-02-21T14:08:06;10.40;99.90
53146;DHT22;39042;53.150;5.898;2024-02-21T14:10:37;10.40;99.90
53146;DHT22;39042;53.150;5.898;2024-02-21T14:13:03;10.40;99.90
53146;DHT22;39042;53.150;5.898;2024-02-21T14:15:32;10.40;99.90
53146;DHT22;39042;53.150;5.898;2024-02-21T14:17:58;10.30;99.90
53146;DHT22;39042;53.150;5.898;2024-02-21T14:20:24;10.30;99.90
53146;DHT22;39042;53.150;5.898;2024-02-21T14:22:49;10.20;99.90
53146;DHT22;39042;53.150;5.898;2024-02-21T14:25:17;10.20;99.90
53146;DHT22;39042;53.150;5.898;2024-02-21T14:27:48;10.10;99.90
53146;DHT22;39042;53.150;5.898;2024-02-21T14:30:21;10.10;99.90
53146;DHT22;39042;53.150;5.898;2024-02-21T14:33:01;10.10;99.90
53146;DHT22;39042;53.150;5.898;2024-02-21T14:35:29;10.10;99.90
53146;DHT22;39042;53.150;5.898;2024-02-21T14:37:58;10.00;99.90
53146;DHT22;39042;53.150;5.898;2024-02-21T14:40:26;10.00;99.90
53146;DHT22;39042;53.150;5.898;2024-02-21T14:42:54;10.00;99.90
53146;DHT22;39042;53.150;5.898;2024-02-21T14:45:34;10.00;99.90
53146;DHT22;39042;53.150;5.898;2024-02-21T14:48:00;9.90;99.90
53146;DHT22;39042;53.150;5.898;2024-02-21T14:50:26;9.90;99.90
53146;DHT22;39042;53.150;5.898;2024-02-21T14:52:52;9.90;99.90
53146;DHT22;39042;53.150;5.898;2024-02-21T14:55:18;9.90;99.90
53146;DHT22;39042;53.150;5.898;2024-02-21T14:57:44;9.90;99.90
53146;DHT22;39042;53.150;5.898;2024-02-21T15:00:10;9.90;99.90
53146;DHT22;39042;53.150;5.898;2024-02-21T15:02:37;9.90;99.90
53146;DHT22;39042;53.150;5.898;2024-02-21T15:05:04;9.90;99.90
53146;DHT22;39042;53.150;5.898;2024-02-21T15:07:34;9.90;99.90
53146;DHT22;39042;53.150;5.898;2024-02-21T15:09:59;9.90;99.90
53146;DHT22;39042;53.150;5.898;2024-02-21T15:12:25;9.90;99.90
53146;DHT22;39042;53.150;5.898;2024-02-21T15:14:51;9.90;99.90
53146;DHT22;39042;53.150;5.898;2024-02-21T15:17:19;9.90;99.90
53146;DHT22;39042;53.150;5.898;2024-02-21T15:19:45;9.90;99.90
53146;DHT22;39042;53.150;5.898;2024-02-21T15:22:15;9.90;99.90
53146;DHT22;39042;53.150;5.898;2024-02-21T15:24:43;9.90;99.90
53146;DHT22;39042;53.150;5.898;2024-02-21T15:27:13;9.90;99.90
53146;DHT22;39042;53.150;5.898;2024-02-21T15:30:17;9.90;99.90
53146;DHT22;39042;53.150;5.898;2024-02-21T15:32:59;9.90;99.90
53146;DHT22;39042;53.150;5.898;2024-02-21T15:35:56;9.80;99.90
53146;DHT22;39042;53.150;5.898;2024-02-21T21:01:50;8.90;99.90
53146;DHT22;39042;53.150;5.898;2024-02-21T21:04:16;8.90;99.90
53146;DHT22;39042;53.150;5.898;2024-02-21T21:06:42;8.90;99.90
53146;DHT22;39042;53.150;5.898;2024-02-21T21:09:08;8.90;99.90
53146;DHT22;39042;53.150;5.898;2024-02-21T21:11:35;8.90;99.90
53146;DHT22;39042;53.150;5.898;2024-02-21T21:14:04;8.90;99.90
53146;DHT22;39042;53.150;5.898;2024-02-21T21:16:29;8.90;99.90
53146;DHT22;39042;53.150;5.898;2024-02-21T21:19:01;8.90;99.90
53146;DHT22;39042;53.150;5.898;2024-02-21T21:21:27;8.90;99.90